Ward, Colorado
Current Conditions -  °F | °C
As of 2:56 AM on Saturday 25 Oct 2014 (Local Time) from KBDU Reporting Station
Clear Clear  
Wind Chill: 52°   Ceiling: Unl
Heat Index: 52°   Visibility: 10mi
Dew Point: 25°   Wind: 6mph
Humidity: 35%   Direction: 320°NW
Pressure: 30.2"   Gusts: NA
Location:  40.07°N, 105.51°W
Report Text: KBDU 250856Z AUTO 32005KT 10SM CLR 11/M04 A3020 RMK AO2
Loading
Personal Weather Stations






























Interactive Weather Map
Tropical Storm Tracking
New forecast layout! Learn more

10-Day Weather Forecast

Advertisements
Track Severe Weather on mobile